aviador You're here:

LTCJ Decoded Metar

BATMAN in TURKEY
Report Time2017-09-21 20:50:00
UTC Time2017-09-21 21:25:57
Flight Rules vfr VFR
Wind040° at 02 kt
W.Decomp.*RWY 02: 1.9 kt HW 0.6 kt RCW
W.Rank040° ranks 3
Current wind is below 040° avg. (5.6)
Visibility9999 m
Phenomena:N/A
Clouds:N/A
Expected CloudBase > 4,800 ft AGL from Temp-Dew spread
CeilingNone
Temp20°C (ISA +9)
Dew Point08°C (46% RH)
AAT18.8°C
QNH1009 hPa
Density Alt3,051 ft
Elevation1,772 ft
Report Wrong Elevation
Raw Report
LTCJ 212050Z 04002KT CAVOK 20/08 Q1009=

Extra information for LTCJ:More info

Metar Taf Metar & Taf Last 4 Metars F.Rules Stats Wind Profile Meteogram Temp Stats Airport Information Weather charts Add Link Nearby VenuesMetar ALERT Operation Metar Decoded Social comments